• Join FlightAware (Why Join?)
  • Login
  • US Flag 
09:26AM EDT


 

Airport Tracker/Info


-or-


 

Live Flight TrackerFlight Track Log ✈ SWA499 ✈ 28-Apr-2013 ✈ KDEN - KMCI

Flight Track Log - Related Links

Times and Time Zones

All times are in EDT time to prevent confusion due to time zone crossing. See the SWA499 flight status page for this flight to view local times or setup timezone preferences in your user account.

Time Position Orientation Groundspeed Altitude Reporting Facility
EDT Latitude Longitude Course Direction KTS MPH feet Rate Location/Type
12:40PM 39.8167 -104.6167 62° Northeast 196 226 6,700  Level Denver TRACON
12:41PM 39.8500 -104.5333 62° Northeast 253 291 8,600 2,040 Climbing Denver TRACON
12:42PM 39.8667 -104.4667 72° East 297 342 10,600 2,460 Climbing Denver TRACON
12:43PM 39.8833 -104.3500 79° East 349 402 13,300 2,940 Climbing Denver TRACON
12:44PM 39.8817 -104.1931 91° East 369 425 17,000 2,940 Climbing Denver Center
12:45PM 39.8819 -104.0389 90° East 396 456 19,800 2,700 Climbing Denver Center
12:46PM 39.8822 -103.8886 90° East 413 475 22,700 2,640 Climbing Denver Center
12:47PM 39.8836 -103.7228 89° East 420 483 25,300 2,340 Climbing Denver Center
12:48PM 39.9028 -103.5656 81° East 438 504 27,600 1,980 Climbing Denver Center
12:49PM 39.9225 -103.4017 81° East 451 519 29,500 1,740 Climbing Denver Center
12:50PM 39.9400 -103.2347 82° East 462 532 31,200 1,740 Climbing Denver Center
12:51PM 39.9583 -103.0650 82° East 466 536 33,100 1,920 Climbing Denver Center
12:52PM 39.9769 -102.8978 82° East 464 534 35,200 1,800 Climbing Denver Center
12:53PM 39.9944 -102.7350 82° East 452 520 36,900 1,440 Climbing Denver Center
12:54PM 40.0117 -102.5694 82° East 452 520 38,200 960 Climbing Denver Center
12:55PM 40.0317 -102.3872 82° East 455 524 39,000 360 Climbing Denver Center
12:56PM 40.0456 -102.2283 83° East 459 528 39,000  Level Denver Center
12:58PM 40.0533 -102.0414 87° East 462 532 39,000  Level Denver Center
12:59PM 40.0628 -101.8847 85° East 456 525 39,000  Level Denver Center
01:00PM 40.0697 -101.6997 87° East 459 528 39,000  Level Denver Center
01:01PM 40.0775 -101.5414 86° East 458 527 39,000  Level Denver Center
01:02PM 40.0861 -101.3589 86° East 455 524 39,000  Level Denver Center
01:03PM 40.0933 -101.2019 87° East 456 525 39,000 -120 Level Denver Center
01:04PM 40.1011 -101.0181 87° East 456 525 38,800 -540 Descending Denver Center
01:05PM 40.1072 -100.8614 87° East 455 524 37,900 -900 Descending Denver Center
01:06PM 40.1125 -100.7053 87° East 452 520 37,000 -480 Descending Denver Center
01:07PM 40.1208 -100.5231 87° East 453 521 37,000  Level Denver Center
01:08PM 40.1264 -100.3403 88° East 454 522 37,000  Level Denver Center
01:09PM 40.1328 -100.1831 87° East 455 524 37,000  Level Denver Center
01:10PM 40.1386 -99.9992 88° East 456 525 37,000  Level Denver Center
01:11PM 40.1444 -99.8331 87° East 459 528 37,000  Level Denver Center
01:12PM 40.1494 -99.6689 88° East 455 524 37,000  Level Denver Center
01:13PM 40.1539 -99.5042 88° East 453 521 37,000  Level Denver Center
01:14PM 40.1586 -99.3408 88° East 451 519 37,000  Level Denver Center
01:15PM 40.1628 -99.1450 88° East 451 519 37,000  Level Denver Center
01:16PM 40.1675 -98.9828 88° East 448 516 37,000  Level Denver Center
01:17PM 40.1714 -98.8206 88° East 450 518 37,000  Level Denver Center
01:18PM 40.1733 -98.7564 88° East 448 516 37,000 -120 Level Minneapolis Center
01:19PM 40.1761 -98.5936 89° East 449 517 36,900 -660 Descending Minneapolis Center
01:20PM 40.1794 -98.3967 89° East 452 520 35,700 -1,080 Descending Minneapolis Center
01:21PM 40.1825 -98.2333 89° East 452 520 34,700 -960 Descending Minneapolis Center
01:22PM 40.1853 -98.0661 89° East 454 522 33,800 -960 Descending Minneapolis Center
01:23PM 40.1872 -97.8972 89° East 459 528 32,800 -1,020 Descending Minneapolis Center
01:24PM 40.1894 -97.7300 89° East 461 531 31,800 -1,020 Descending Minneapolis Center
01:25PM 40.1931 -97.5619 88° East 462 532 30,800 -1,080 Descending Minneapolis Center
01:26PM 40.1953 -97.3644 89° East 459 528 29,600 -1,140 Descending Minneapolis Center
01:27PM 40.1958 -97.2031 90° East 455 524 28,500 -1,020 Descending Minneapolis Center
01:28PM 40.1969 -97.0414 89° East 451 519 27,500 -1,020 Descending Minneapolis Center
01:29PM 40.1975 -96.8825 90° East 445 512 26,500 -1,020 Descending Minneapolis Center
01:30PM 40.1997 -96.7267 89° East 436 502 25,500 -1,020 Descending Minneapolis Center
01:31PM 40.1992 -96.5725 90° East 429 494 24,500 -780 Descending Minneapolis Center
01:32PM 40.1997 -96.3908 90° East 422 486 24,000 -300 Descending Minneapolis Center
01:33PM 40.1992 -96.2403 90° East 418 481 24,000 -60 Level Minneapolis Center
01:34PM 40.1528 -96.1000 113° Southeast 427 491 23,900 -1,200 Descending Minneapolis Center
01:35PM 40.0958 -95.9678 119° Southeast 422 486 21,600 -2,160 Descending Minneapolis Center
01:36PM 40.0389 -95.8386 120° Southeast 415 478 19,500 -2,160 Descending Minneapolis Center
01:37PM 39.9825 -95.7164 121° Southeast 402 463 17,200 -2,400 Descending Minneapolis Center
01:38PM 39.9194 -95.5739 120° Southeast 385 443 14,600 -2,340 Descending Minneapolis Center
01:39PM 39.8686 -95.4611 120° Southeast 370 426 12,400 -1,320 Descending Minneapolis Center
01:40PM 39.8078 -95.3767 133° Southeast 355 409 12,000 -600 Descending Kansas City Center
01:41PM 39.7219 -95.2897 142° Southeast 349 402 11,200 -1,020 Descending Kansas City Center
01:42PM 39.6569 -95.2125 138° Southeast 331 381 10,000 -1,140 Descending Kansas City Center
01:43PM 39.6239 -95.1161 114° Southeast 307 353 8,900 -1,500 Descending Kansas City Center
01:44PM 39.5875 -95.0067 113° Southeast 296 341 7,000 -1,380 Descending Kansas City Center
01:45PM 39.5575 -94.9100 112° Southeast 299 344 6,100 -540 Descending Kansas City Center
01:46PM 39.5036 -94.8197 128° Southeast 282 325 6,000 -540 Descending Kansas City Center
01:48PM 39.4569 -94.7536 132° Southeast 261 300 5,000 -1,320 Descending Kansas City Center
01:49PM 39.4111 -94.6939 135° Southeast 208 239 3,300 -1,440 Descending Kansas City Center
01:50PM 39.3700 -94.7094 196° South 162 186 2,100 -1,080 Descending Kansas City Center
01:51PM 39.3278 -94.7194 190° South 136 157 1,100 -1,020 Descending Kansas City Center